KBLU/BLU METAR and TAF weather

Enter ICAO airport designator
Station Type Date Time Source
KBLU METAR 2018/10/21 05:52 UTC NOAA

KBLU 210552Z AUTO 32003KT 10SM CLR 14/M03 A3017 RMK AO2 SLP142 T01391028 10178 20128 53001


Station Type Date Time Source
KBLU Decoded METAR 2018/10/21 05:52 UTC NOAA

BLUE CANYON AIRPORT, CA, United States (KBLU) 39-17N 120-42W 1609M
Oct 21, 2018 - 01:52 AM EDT / 2018.10.21 0552 UTC
Wind: from the NW (320 degrees) at 3 MPH (3 KT):0
Visibility: 10 mile(s):0
Sky conditions: clear
Temperature: 57.0 F (13.9 C)
Dew Point: 27.0 F (-2.8 C)
Relative Humidity: 31%
Pressure (altimeter): 30.17 in. Hg (1021 hPa)
Pressure tendency: 0.00 inches (0.1 hPa) higher than three hours ago
ob: KBLU 210552Z AUTO 32003KT 10SM CLR 14/M03 A3017 RMK AO2 SLP142 T01391028 10178 20128 53001
cycle: 6

Station Type Date Time Source
KBLU TAF UTC NOAA

Error!


Example: see airport list